sensor_id;sensor_type;location;lat;lon;timestamp;P1;durP1;ratioP1;P2;durP2;ratioP2
59970;SDS011;45825;45.434;9.116;2023-03-14T00:01:28;27.77;;;21.13;;
59970;SDS011;45825;45.434;9.116;2023-03-14T00:03:53;26.75;;;21.48;;
59970;SDS011;45825;45.434;9.116;2023-03-14T00:06:19;30.98;;;22.15;;
59970;SDS011;45825;45.434;9.116;2023-03-14T00:08:45;27.83;;;21.20;;
59970;SDS011;45825;45.434;9.116;2023-03-14T00:11:11;28.05;;;21.00;;
59970;SDS011;45825;45.434;9.116;2023-03-14T00:16:08;24.63;;;20.08;;
59970;SDS011;45825;45.434;9.116;2023-03-14T00:18:35;27.95;;;20.80;;
59970;SDS011;45825;45.434;9.116;2023-03-14T00:21:01;26.75;;;20.75;;
59970;SDS011;45825;45.434;9.116;2023-03-14T00:23:28;27.67;;;21.38;;
59970;SDS011;45825;45.434;9.116;2023-03-14T00:25:59;27.95;;;21.25;;
59970;SDS011;45825;45.434;9.116;2023-03-14T00:28:25;25.70;;;20.88;;
59970;SDS011;45825;45.434;9.116;2023-03-14T00:30:51;26.55;;;20.63;;
59970;SDS011;45825;45.434;9.116;2023-03-14T00:33:16;28.08;;;19.52;;
59970;SDS011;45825;45.434;9.116;2023-03-14T00:35:41;25.90;;;20.77;;
59970;SDS011;45825;45.434;9.116;2023-03-14T00:38:07;28.73;;;20.83;;
59970;SDS011;45825;45.434;9.116;2023-03-14T00:40:32;27.02;;;20.80;;
59970;SDS011;45825;45.434;9.116;2023-03-14T00:42:57;27.23;;;20.35;;
59970;SDS011;45825;45.434;9.116;2023-03-14T00:45:22;30.42;;;21.65;;
59970;SDS011;45825;45.434;9.116;2023-03-14T00:47:48;26.42;;;20.75;;
59970;SDS011;45825;45.434;9.116;2023-03-14T00:50:13;29.30;;;20.63;;
59970;SDS011;45825;45.434;9.116;2023-03-14T00:52:38;25.92;;;19.92;;
59970;SDS011;45825;45.434;9.116;2023-03-14T00:55:04;27.15;;;21.13;;
59970;SDS011;45825;45.434;9.116;2023-03-14T00:57:30;30.70;;;20.02;;
59970;SDS011;45825;45.434;9.116;2023-03-14T00:59:55;29.45;;;19.60;;
59970;SDS011;45825;45.434;9.116;2023-03-14T01:02:20;25.90;;;19.85;;
59970;SDS011;45825;45.434;9.116;2023-03-14T01:04:47;27.98;;;19.88;;
59970;SDS011;45825;45.434;9.116;2023-03-14T01:07:13;27.73;;;19.58;;
59970;SDS011;45825;45.434;9.116;2023-03-14T01:09:38;26.63;;;19.58;;
59970;SDS011;45825;45.434;9.116;2023-03-14T01:12:04;25.20;;;19.23;;
59970;SDS011;45825;45.434;9.116;2023-03-14T01:14:29;25.20;;;18.83;;
59970;SDS011;45825;45.434;9.116;2023-03-14T01:16:54;26.15;;;19.38;;
59970;SDS011;45825;45.434;9.116;2023-03-14T01:19:25;23.90;;;19.08;;
59970;SDS011;45825;45.434;9.116;2023-03-14T01:21:51;26.75;;;19.27;;
59970;SDS011;45825;45.434;9.116;2023-03-14T01:24:16;26.52;;;18.98;;
59970;SDS011;45825;45.434;9.116;2023-03-14T01:26:41;22.90;;;18.20;;
59970;SDS011;45825;45.434;9.116;2023-03-14T01:29:07;24.98;;;17.95;;
59970;SDS011;45825;45.434;9.116;2023-03-14T01:31:32;26.27;;;18.55;;
59970;SDS011;45825;45.434;9.116;2023-03-14T01:33:57;21.58;;;16.63;;
59970;SDS011;45825;45.434;9.116;2023-03-14T01:36:23;23.52;;;18.35;;
59970;SDS011;45825;45.434;9.116;2023-03-14T01:38:48;23.30;;;17.00;;
59970;SDS011;45825;45.434;9.116;2023-03-14T01:41:15;25.70;;;17.95;;
59970;SDS011;45825;45.434;9.116;2023-03-14T01:43:42;25.13;;;18.33;;
59970;SDS011;45825;45.434;9.116;2023-03-14T01:51:18;23.10;;;17.23;;
59970;SDS011;45825;45.434;9.116;2023-03-14T01:53:50;28.10;;;17.48;;
59970;SDS011;45825;45.434;9.116;2023-03-14T01:56:19;23.08;;;17.40;;
59970;SDS011;45825;45.434;9.116;2023-03-14T01:58:45;26.30;;;18.42;;
59970;SDS011;45825;45.434;9.116;2023-03-14T02:01:14;23.48;;;17.42;;
59970;SDS011;45825;45.434;9.116;2023-03-14T02:03:46;23.15;;;16.73;;
59970;SDS011;45825;45.434;9.116;2023-03-14T02:06:14;23.50;;;17.80;;
59970;SDS011;45825;45.434;9.116;2023-03-14T02:08:44;22.42;;;17.50;;
59970;SDS011;45825;45.434;9.116;2023-03-14T02:11:13;22.85;;;17.33;;
59970;SDS011;45825;45.434;9.116;2023-03-14T02:13:39;23.90;;;17.00;;
59970;SDS011;45825;45.434;9.116;2023-03-14T02:16:04;23.30;;;17.27;;
59970;SDS011;45825;45.434;9.116;2023-03-14T02:18:30;23.63;;;16.83;;
59970;SDS011;45825;45.434;9.116;2023-03-14T02:20:58;24.10;;;17.05;;
59970;SDS011;45825;45.434;9.116;2023-03-14T02:23:32;21.58;;;16.75;;
59970;SDS011;45825;45.434;9.116;2023-03-14T02:26:19;20.75;;;16.10;;
59970;SDS011;45825;45.434;9.116;2023-03-14T02:28:48;23.08;;;16.10;;
59970;SDS011;45825;45.434;9.116;2023-03-14T02:31:14;21.75;;;15.90;;
59970;SDS011;45825;45.434;9.116;2023-03-14T02:33:41;21.08;;;15.77;;
59970;SDS011;45825;45.434;9.116;2023-03-14T02:36:07;20.50;;;15.48;;
59970;SDS011;45825;45.434;9.116;2023-03-14T02:41:10;22.98;;;16.05;;
59970;SDS011;45825;45.434;9.116;2023-03-14T02:43:36;19.85;;;15.23;;
59970;SDS011;45825;45.434;9.116;2023-03-14T02:46:01;24.70;;;16.63;;
59970;SDS011;45825;45.434;9.116;2023-03-14T02:48:31;19.23;;;15.55;;
59970;SDS011;45825;45.434;9.116;2023-03-14T02:51:01;21.25;;;15.07;;
59970;SDS011;45825;45.434;9.116;2023-03-14T02:53:29;22.98;;;15.32;;
59970;SDS011;45825;45.434;9.116;2023-03-14T02:55:59;21.33;;;15.40;;
59970;SDS011;45825;45.434;9.116;2023-03-14T02:58:25;23.83;;;16.55;;
59970;SDS011;45825;45.434;9.116;2023-03-14T03:00:54;21.48;;;14.90;;
59970;SDS011;45825;45.434;9.116;2023-03-14T03:03:19;21.23;;;15.38;;
59970;SDS011;45825;45.434;9.116;2023-03-14T03:05:48;23.30;;;15.27;;
59970;SDS011;45825;45.434;9.116;2023-03-14T03:08:18;20.80;;;15.35;;
59970;SDS011;45825;45.434;9.116;2023-03-14T03:10:45;22.25;;;15.77;;
59970;SDS011;45825;45.434;9.116;2023-03-14T03:13:10;18.65;;;14.63;;
59970;SDS011;45825;45.434;9.116;2023-03-14T03:15:36;23.00;;;16.10;;
59970;SDS011;45825;45.434;9.116;2023-03-14T03:18:01;21.52;;;15.48;;
59970;SDS011;45825;45.434;9.116;2023-03-14T03:20:26;22.83;;;15.15;;
59970;SDS011;45825;45.434;9.116;2023-03-14T03:22:52;22.55;;;16.30;;
59970;SDS011;45825;45.434;9.116;2023-03-14T03:25:17;20.92;;;16.15;;
59970;SDS011;45825;45.434;9.116;2023-03-14T03:27:42;24.73;;;16.60;;
59970;SDS011;45825;45.434;9.116;2023-03-14T03:30:08;25.17;;;16.98;;
59970;SDS011;45825;45.434;9.116;2023-03-14T03:32:34;22.95;;;15.18;;
59970;SDS011;45825;45.434;9.116;2023-03-14T03:34:59;21.83;;;15.88;;
59970;SDS011;45825;45.434;9.116;2023-03-14T03:37:24;20.05;;;15.77;;
59970;SDS011;45825;45.434;9.116;2023-03-14T03:39:53;22.55;;;16.38;;
59970;SDS011;45825;45.434;9.116;2023-03-14T03:42:18;19.80;;;15.35;;
59970;SDS011;45825;45.434;9.116;2023-03-14T03:44:45;22.90;;;16.45;;
59970;SDS011;45825;45.434;9.116;2023-03-14T03:47:10;21.23;;;15.90;;
59970;SDS011;45825;45.434;9.116;2023-03-14T03:49:36;22.20;;;16.33;;
59970;SDS011;45825;45.434;9.116;2023-03-14T03:52:01;22.77;;;16.83;;
59970;SDS011;45825;45.434;9.116;2023-03-14T03:54:26;23.92;;;17.08;;
59970;SDS011;45825;45.434;9.116;2023-03-14T03:56:53;33.42;;;19.70;;
59970;SDS011;45825;45.434;9.116;2023-03-14T03:59:19;30.55;;;20.15;;
59970;SDS011;45825;45.434;9.116;2023-03-14T04:01:44;27.70;;;19.30;;
59970;SDS011;45825;45.434;9.116;2023-03-14T04:04:09;28.40;;;19.27;;
59970;SDS011;45825;45.434;9.116;2023-03-14T04:06:35;29.50;;;20.27;;
59970;SDS011;45825;45.434;9.116;2023-03-14T04:09:02;30.35;;;20.92;;
59970;SDS011;45825;45.434;9.116;2023-03-14T04:11:27;28.95;;;20.42;;
59970;SDS011;45825;45.434;9.116;2023-03-14T04:13:53;29.52;;;22.02;;
59970;SDS011;45825;45.434;9.116;2023-03-14T04:16:23;32.22;;;22.67;;
59970;SDS011;45825;45.434;9.116;2023-03-14T04:18:50;31.80;;;23.45;;
59970;SDS011;45825;45.434;9.116;2023-03-14T04:21:16;33.40;;;24.33;;
59970;SDS011;45825;45.434;9.116;2023-03-14T04:23:41;30.63;;;24.38;;
59970;SDS011;45825;45.434;9.116;2023-03-14T04:26:07;35.45;;;25.95;;
59970;SDS011;45825;45.434;9.116;2023-03-14T04:28:32;35.55;;;26.35;;
59970;SDS011;45825;45.434;9.116;2023-03-14T04:30:57;33.33;;;25.27;;
59970;SDS011;45825;45.434;9.116;2023-03-14T04:33:23;32.75;;;24.95;;
59970;SDS011;45825;45.434;9.116;2023-03-14T04:35:49;33.40;;;26.02;;
59970;SDS011;45825;45.434;9.116;2023-03-14T04:38:18;38.75;;;25.70;;
59970;SDS011;45825;45.434;9.116;2023-03-14T04:40:43;34.20;;;26.17;;
59970;SDS011;45825;45.434;9.116;2023-03-14T04:43:09;34.47;;;26.17;;
59970;SDS011;45825;45.434;9.116;2023-03-14T04:45:35;34.65;;;26.25;;
59970;SDS011;45825;45.434;9.116;2023-03-14T04:48:01;32.55;;;25.10;;
59970;SDS011;45825;45.434;9.116;2023-03-14T04:50:27;36.13;;;24.48;;
59970;SDS011;45825;45.434;9.116;2023-03-14T04:52:52;29.55;;;23.70;;
59970;SDS011;45825;45.434;9.116;2023-03-14T04:55:17;33.38;;;23.67;;
59970;SDS011;45825;45.434;9.116;2023-03-14T04:57:43;30.83;;;22.98;;
59970;SDS011;45825;45.434;9.116;2023-03-14T05:00:08;28.40;;;22.23;;
59970;SDS011;45825;45.434;9.116;2023-03-14T05:02:34;31.50;;;23.48;;
59970;SDS011;45825;45.434;9.116;2023-03-14T05:05:00;32.95;;;23.50;;
59970;SDS011;45825;45.434;9.116;2023-03-14T05:07:25;33.53;;;23.52;;
59970;SDS011;45825;45.434;9.116;2023-03-14T05:09:50;31.23;;;21.92;;
59970;SDS011;45825;45.434;9.116;2023-03-14T05:12:17;31.15;;;22.15;;
59970;SDS011;45825;45.434;9.116;2023-03-14T05:14:43;30.17;;;22.10;;
59970;SDS011;45825;45.434;9.116;2023-03-14T05:17:08;28.63;;;21.92;;
59970;SDS011;45825;45.434;9.116;2023-03-14T05:19:34;29.45;;;22.95;;
59970;SDS011;45825;45.434;9.116;2023-03-14T05:22:00;31.65;;;23.30;;
59970;SDS011;45825;45.434;9.116;2023-03-14T05:24:26;31.30;;;23.02;;
59970;SDS011;45825;45.434;9.116;2023-03-14T05:26:51;31.20;;;22.90;;
59970;SDS011;45825;45.434;9.116;2023-03-14T05:29:16;27.98;;;21.27;;
59970;SDS011;45825;45.434;9.116;2023-03-14T05:31:42;30.40;;;22.77;;
59970;SDS011;45825;45.434;9.116;2023-03-14T05:34:07;28.42;;;22.15;;
59970;SDS011;45825;45.434;9.116;2023-03-14T05:36:32;30.90;;;22.05;;
59970;SDS011;45825;45.434;9.116;2023-03-14T05:38:57;29.73;;;21.58;;
59970;SDS011;45825;45.434;9.116;2023-03-14T05:41:23;28.27;;;21.80;;
59970;SDS011;45825;45.434;9.116;2023-03-14T05:43:48;30.40;;;22.20;;
59970;SDS011;45825;45.434;9.116;2023-03-14T05:46:14;32.25;;;22.65;;
59970;SDS011;45825;45.434;9.116;2023-03-14T05:48:39;30.80;;;22.10;;
59970;SDS011;45825;45.434;9.116;2023-03-14T05:51:04;30.98;;;20.55;;
59970;SDS011;45825;45.434;9.116;2023-03-14T05:53:30;28.52;;;21.48;;
59970;SDS011;45825;45.434;9.116;2023-03-14T05:55:55;30.38;;;21.50;;
59970;SDS011;45825;45.434;9.116;2023-03-14T05:58:21;26.67;;;21.13;;
59970;SDS011;45825;45.434;9.116;2023-03-14T06:00:47;29.88;;;21.48;;
59970;SDS011;45825;45.434;9.116;2023-03-14T06:03:12;25.40;;;21.38;;
59970;SDS011;45825;45.434;9.116;2023-03-14T06:05:38;30.05;;;22.50;;
59970;SDS011;45825;45.434;9.116;2023-03-14T06:08:03;31.08;;;23.35;;
59970;SDS011;45825;45.434;9.116;2023-03-14T06:10:29;33.20;;;24.45;;
59970;SDS011;45825;45.434;9.116;2023-03-14T06:12:54;31.75;;;24.67;;
59970;SDS011;45825;45.434;9.116;2023-03-14T06:15:19;31.55;;;24.77;;
59970;SDS011;45825;45.434;9.116;2023-03-14T06:17:45;31.50;;;23.80;;
59970;SDS011;45825;45.434;9.116;2023-03-14T06:20:10;29.33;;;23.92;;
59970;SDS011;45825;45.434;9.116;2023-03-14T06:22:37;31.58;;;24.35;;
59970;SDS011;45825;45.434;9.116;2023-03-14T06:25:03;32.95;;;24.92;;
59970;SDS011;45825;45.434;9.116;2023-03-14T06:27:29;35.70;;;24.92;;
59970;SDS011;45825;45.434;9.116;2023-03-14T06:29:54;35.45;;;25.63;;
59970;SDS011;45825;45.434;9.116;2023-03-14T06:32:20;32.85;;;25.42;;
59970;SDS011;45825;45.434;9.116;2023-03-14T06:34:46;32.40;;;25.17;;
59970;SDS011;45825;45.434;9.116;2023-03-14T06:37:11;32.75;;;25.83;;
59970;SDS011;45825;45.434;9.116;2023-03-14T06:39:36;31.98;;;25.10;;
59970;SDS011;45825;45.434;9.116;2023-03-14T06:42:03;33.45;;;26.05;;
59970;SDS011;45825;45.434;9.116;2023-03-14T06:44:29;34.08;;;26.40;;
59970;SDS011;45825;45.434;9.116;2023-03-14T06:46:54;35.53;;;26.00;;
59970;SDS011;45825;45.434;9.116;2023-03-14T06:49:20;34.47;;;25.55;;
59970;SDS011;45825;45.434;9.116;2023-03-14T06:51:45;30.55;;;24.80;;
59970;SDS011;45825;45.434;9.116;2023-03-14T06:54:10;31.27;;;24.55;;
59970;SDS011;45825;45.434;9.116;2023-03-14T06:56:35;33.95;;;25.63;;
59970;SDS011;45825;45.434;9.116;2023-03-14T06:59:01;34.72;;;25.10;;
59970;SDS011;45825;45.434;9.116;2023-03-14T07:01:27;31.40;;;23.10;;
59970;SDS011;45825;45.434;9.116;2023-03-14T07:03:54;31.02;;;24.27;;
59970;SDS011;45825;45.434;9.116;2023-03-14T07:06:19;34.03;;;26.08;;
59970;SDS011;45825;45.434;9.116;2023-03-14T07:08:45;43.22;;;30.63;;
59970;SDS011;45825;45.434;9.116;2023-03-14T07:11:10;44.20;;;31.77;;
59970;SDS011;45825;45.434;9.116;2023-03-14T07:13:37;46.65;;;31.42;;
59970;SDS011;45825;45.434;9.116;2023-03-14T07:16:03;45.33;;;32.40;;
59970;SDS011;45825;45.434;9.116;2023-03-14T07:18:28;50.38;;;32.03;;
59970;SDS011;45825;45.434;9.116;2023-03-14T07:20:54;39.97;;;28.13;;
59970;SDS011;45825;45.434;9.116;2023-03-14T07:23:19;36.90;;;28.20;;
59970;SDS011;45825;45.434;9.116;2023-03-14T07:25:45;38.35;;;28.02;;
59970;SDS011;45825;45.434;9.116;2023-03-14T07:28:10;36.25;;;28.38;;
59970;SDS011;45825;45.434;9.116;2023-03-14T07:30:35;35.53;;;26.95;;
59970;SDS011;45825;45.434;9.116;2023-03-14T07:33:00;35.65;;;28.75;;
59970;SDS011;45825;45.434;9.116;2023-03-14T07:35:26;37.75;;;28.17;;
59970;SDS011;45825;45.434;9.116;2023-03-14T07:37:51;32.38;;;26.92;;
59970;SDS011;45825;45.434;9.116;2023-03-14T07:40:16;33.05;;;27.15;;
59970;SDS011;45825;45.434;9.116;2023-03-14T07:42:42;33.97;;;25.95;;
59970;SDS011;45825;45.434;9.116;2023-03-14T07:45:08;33.05;;;26.33;;
59970;SDS011;45825;45.434;9.116;2023-03-14T07:47:35;33.90;;;25.98;;
59970;SDS011;45825;45.434;9.116;2023-03-14T07:50:00;32.33;;;24.92;;
59970;SDS011;45825;45.434;9.116;2023-03-14T07:52:26;38.22;;;27.85;;
59970;SDS011;45825;45.434;9.116;2023-03-14T07:54:51;31.77;;;25.80;;
59970;SDS011;45825;45.434;9.116;2023-03-14T07:57:16;37.20;;;28.05;;
59970;SDS011;45825;45.434;9.116;2023-03-14T07:59:42;37.17;;;27.10;;
59970;SDS011;45825;45.434;9.116;2023-03-14T08:02:10;38.22;;;28.17;;
59970;SDS011;45825;45.434;9.116;2023-03-14T08:04:37;38.50;;;27.98;;
59970;SDS011;45825;45.434;9.116;2023-03-14T08:07:02;38.42;;;27.27;;
59970;SDS011;45825;45.434;9.116;2023-03-14T08:09:28;35.20;;;26.83;;
59970;SDS011;45825;45.434;9.116;2023-03-14T08:11:53;34.47;;;26.52;;
59970;SDS011;45825;45.434;9.116;2023-03-14T08:14:18;32.83;;;26.00;;
59970;SDS011;45825;45.434;9.116;2023-03-14T08:16:44;30.45;;;23.30;;
59970;SDS011;45825;45.434;9.116;2023-03-14T08:19:09;31.77;;;25.60;;
59970;SDS011;45825;45.434;9.116;2023-03-14T08:21:34;32.90;;;24.98;;
59970;SDS011;45825;45.434;9.116;2023-03-14T08:24:00;32.67;;;26.45;;
59970;SDS011;45825;45.434;9.116;2023-03-14T08:26:25;33.22;;;24.83;;
59970;SDS011;45825;45.434;9.116;2023-03-14T08:28:51;31.02;;;24.90;;
59970;SDS011;45825;45.434;9.116;2023-03-14T08:31:16;31.70;;;24.67;;
59970;SDS011;45825;45.434;9.116;2023-03-14T08:33:42;30.63;;;24.23;;
59970;SDS011;45825;45.434;9.116;2023-03-14T08:36:08;30.40;;;24.80;;
59970;SDS011;45825;45.434;9.116;2023-03-14T08:38:34;33.30;;;25.50;;
59970;SDS011;45825;45.434;9.116;2023-03-14T08:40:59;30.42;;;23.98;;
59970;SDS011;45825;45.434;9.116;2023-03-14T08:43:26;32.53;;;24.40;;
59970;SDS011;45825;45.434;9.116;2023-03-14T08:45:52;29.75;;;22.17;;
59970;SDS011;45825;45.434;9.116;2023-03-14T08:48:18;31.75;;;23.52;;
59970;SDS011;45825;45.434;9.116;2023-03-14T08:50:44;29.88;;;22.90;;
59970;SDS011;45825;45.434;9.116;2023-03-14T08:53:10;29.17;;;23.05;;
59970;SDS011;45825;45.434;9.116;2023-03-14T08:55:35;31.85;;;24.13;;
59970;SDS011;45825;45.434;9.116;2023-03-14T08:58:00;30.63;;;22.77;;
59970;SDS011;45825;45.434;9.116;2023-03-14T09:00:26;29.58;;;22.42;;
59970;SDS011;45825;45.434;9.116;2023-03-14T09:02:52;29.17;;;22.15;;
59970;SDS011;45825;45.434;9.116;2023-03-14T09:05:17;27.58;;;21.58;;
59970;SDS011;45825;45.434;9.116;2023-03-14T09:07:43;28.45;;;21.65;;
59970;SDS011;45825;45.434;9.116;2023-03-14T09:10:08;28.45;;;21.27;;
59970;SDS011;45825;45.434;9.116;2023-03-14T09:12:34;29.42;;;21.65;;
59970;SDS011;45825;45.434;9.116;2023-03-14T09:15:00;29.15;;;21.25;;
59970;SDS011;45825;45.434;9.116;2023-03-14T09:17:25;30.38;;;21.38;;
59970;SDS011;45825;45.434;9.116;2023-03-14T09:19:51;30.17;;;22.95;;
59970;SDS011;45825;45.434;9.116;2023-03-14T09:22:16;33.53;;;25.88;;
59970;SDS011;45825;45.434;9.116;2023-03-14T09:24:42;32.30;;;25.45;;
59970;SDS011;45825;45.434;9.116;2023-03-14T09:27:07;28.05;;;22.58;;
59970;SDS011;45825;45.434;9.116;2023-03-14T09:29:33;21.70;;;16.23;;
59970;SDS011;45825;45.434;9.116;2023-03-14T09:31:59;21.30;;;16.92;;
59970;SDS011;45825;45.434;9.116;2023-03-14T09:34:24;23.27;;;17.85;;
59970;SDS011;45825;45.434;9.116;2023-03-14T09:36:50;25.25;;;19.40;;
59970;SDS011;45825;45.434;9.116;2023-03-14T09:39:15;25.65;;;19.90;;
59970;SDS011;45825;45.434;9.116;2023-03-14T09:41:43;26.88;;;22.67;;
59970;SDS011;45825;45.434;9.116;2023-03-14T09:44:15;27.88;;;20.55;;
59970;SDS011;45825;45.434;9.116;2023-03-14T09:46:45;24.25;;;19.38;;
59970;SDS011;45825;45.434;9.116;2023-03-14T09:49:22;23.98;;;20.65;;
59970;SDS011;45825;45.434;9.116;2023-03-14T09:51:53;23.42;;;19.70;;
59970;SDS011;45825;45.434;9.116;2023-03-14T09:55:05;26.55;;;21.70;;
59970;SDS011;45825;45.434;9.116;2023-03-14T09:57:28;24.73;;;21.02;;
59970;SDS011;45825;45.434;9.116;2023-03-14T09:59:59;26.27;;;20.83;;
59970;SDS011;45825;45.434;9.116;2023-03-14T10:02:37;28.63;;;22.67;;
59970;SDS011;45825;45.434;9.116;2023-03-14T10:05:05;29.48;;;23.00;;
59970;SDS011;45825;45.434;9.116;2023-03-14T10:07:38;24.63;;;20.20;;
59970;SDS011;45825;45.434;9.116;2023-03-14T10:10:08;26.55;;;21.83;;
59970;SDS011;45825;45.434;9.116;2023-03-14T10:12:46;26.90;;;21.88;;
59970;SDS011;45825;45.434;9.116;2023-03-14T10:15:13;31.60;;;26.55;;
59970;SDS011;45825;45.434;9.116;2023-03-14T10:17:44;30.25;;;23.75;;
59970;SDS011;45825;45.434;9.116;2023-03-14T10:20:29;27.63;;;21.90;;
59970;SDS011;45825;45.434;9.116;2023-03-14T10:23:01;32.28;;;25.98;;
59970;SDS011;45825;45.434;9.116;2023-03-14T10:25:30;23.70;;;19.42;;
59970;SDS011;45825;45.434;9.116;2023-03-14T10:27:57;26.45;;;20.50;;
59970;SDS011;45825;45.434;9.116;2023-03-14T10:30:44;29.27;;;26.15;;
59970;SDS011;45825;45.434;9.116;2023-03-14T10:33:20;25.98;;;23.10;;
59970;SDS011;45825;45.434;9.116;2023-03-14T10:35:54;24.75;;;19.40;;
59970;SDS011;45825;45.434;9.116;2023-03-14T10:38:22;21.85;;;17.67;;
59970;SDS011;45825;45.434;9.116;2023-03-14T10:40:50;25.95;;;18.88;;
59970;SDS011;45825;45.434;9.116;2023-03-14T10:43:19;21.58;;;17.52;;
59970;SDS011;45825;45.434;9.116;2023-03-14T10:45:55;22.45;;;17.13;;
59970;SDS011;45825;45.434;9.116;2023-03-14T10:53:41;18.52;;;16.10;;
59970;SDS011;45825;45.434;9.116;2023-03-14T10:56:11;21.08;;;15.68;;
59970;SDS011;45825;45.434;9.116;2023-03-14T10:58:45;21.63;;;16.33;;
59970;SDS011;45825;45.434;9.116;2023-03-14T11:06:33;22.17;;;17.65;;
59970;SDS011;45825;45.434;9.116;2023-03-14T11:09:11;23.33;;;18.05;;
59970;SDS011;45825;45.434;9.116;2023-03-14T11:14:23;21.27;;;17.10;;
59970;SDS011;45825;45.434;9.116;2023-03-14T11:17:11;24.63;;;17.55;;
59970;SDS011;45825;45.434;9.116;2023-03-14T11:22:46;19.33;;;16.35;;
59970;SDS011;45825;45.434;9.116;2023-03-14T11:31:13;19.98;;;15.15;;
59970;SDS011;45825;45.434;9.116;2023-03-14T11:33:46;19.95;;;15.35;;
59970;SDS011;45825;45.434;9.116;2023-03-14T11:36:39;18.42;;;16.02;;
59970;SDS011;45825;45.434;9.116;2023-03-14T11:39:16;21.40;;;16.50;;
59970;SDS011;45825;45.434;9.116;2023-03-14T11:41:51;19.95;;;15.90;;
59970;SDS011;45825;45.434;9.116;2023-03-14T11:44:19;19.58;;;15.88;;
59970;SDS011;45825;45.434;9.116;2023-03-14T11:51:56;21.05;;;16.40;;
59970;SDS011;45825;45.434;9.116;2023-03-14T11:57:04;20.60;;;16.92;;
59970;SDS011;45825;45.434;9.116;2023-03-14T12:02:33;19.40;;;17.02;;
59970;SDS011;45825;45.434;9.116;2023-03-14T12:08:15;19.58;;;16.65;;
59970;SDS011;45825;45.434;9.116;2023-03-14T12:10:55;21.77;;;16.98;;
59970;SDS011;45825;45.434;9.116;2023-03-14T12:13:27;19.13;;;16.25;;
59970;SDS011;45825;45.434;9.116;2023-03-14T12:16:00;21.38;;;17.40;;
59970;SDS011;45825;45.434;9.116;2023-03-14T12:18:49;19.85;;;17.67;;
59970;SDS011;45825;45.434;9.116;2023-03-14T12:21:16;21.42;;;17.65;;
59970;SDS011;45825;45.434;9.116;2023-03-14T12:23:43;23.10;;;19.67;;
59970;SDS011;45825;45.434;9.116;2023-03-14T12:28:51;22.98;;;20.33;;
59970;SDS011;45825;45.434;9.116;2023-03-14T12:42:02;23.58;;;18.42;;
59970;SDS011;45825;45.434;9.116;2023-03-14T12:49:43;23.33;;;18.77;;
59970;SDS011;45825;45.434;9.116;2023-03-14T12:54:54;25.17;;;19.55;;
59970;SDS011;45825;45.434;9.116;2023-03-14T13:00:39;24.33;;;20.58;;
59970;SDS011;45825;45.434;9.116;2023-03-14T13:05:51;23.73;;;19.15;;
59970;SDS011;45825;45.434;9.116;2023-03-14T13:11:18;20.58;;;18.38;;
59970;SDS011;45825;45.434;9.116;2023-03-14T13:13:49;21.85;;;18.67;;
59970;SDS011;45825;45.434;9.116;2023-03-14T13:16:21;21.60;;;18.02;;
59970;SDS011;45825;45.434;9.116;2023-03-14T13:18:48;22.27;;;18.92;;
59970;SDS011;45825;45.434;9.116;2023-03-14T13:21:20;23.20;;;19.38;;
59970;SDS011;45825;45.434;9.116;2023-03-14T13:24:34;23.80;;;19.15;;
59970;SDS011;45825;45.434;9.116;2023-03-14T13:26:47;20.45;;;18.25;;
59970;SDS011;45825;45.434;9.116;2023-03-14T13:29:19;18.13;;;15.95;;
59970;SDS011;45825;45.434;9.116;2023-03-14T13:31:48;19.08;;;16.92;;
59970;SDS011;45825;45.434;9.116;2023-03-14T13:34:19;19.42;;;16.13;;
59970;SDS011;45825;45.434;9.116;2023-03-14T13:36:45;18.50;;;15.85;;
59970;SDS011;45825;45.434;9.116;2023-03-14T13:39:16;16.75;;;14.95;;
59970;SDS011;45825;45.434;9.116;2023-03-14T13:41:43;16.65;;;14.73;;
59970;SDS011;45825;45.434;9.116;2023-03-14T13:44:14;18.58;;;14.70;;
59970;SDS011;45825;45.434;9.116;2023-03-14T13:46:42;16.88;;;12.73;;
59970;SDS011;45825;45.434;9.116;2023-03-14T13:49:11;16.40;;;12.38;;
59970;SDS011;45825;45.434;9.116;2023-03-14T13:51:42;15.15;;;11.60;;
59970;SDS011;45825;45.434;9.116;2023-03-14T13:54:15;16.38;;;12.80;;
59970;SDS011;45825;45.434;9.116;2023-03-14T13:56:41;15.02;;;12.70;;
59970;SDS011;45825;45.434;9.116;2023-03-14T13:59:26;17.42;;;12.70;;
59970;SDS011;45825;45.434;9.116;2023-03-14T14:01:53;16.90;;;14.02;;
59970;SDS011;45825;45.434;9.116;2023-03-14T14:04:21;18.92;;;13.75;;
59970;SDS011;45825;45.434;9.116;2023-03-14T14:06:54;18.98;;;14.13;;
59970;SDS011;45825;45.434;9.116;2023-03-14T14:09:24;16.25;;;13.65;;
59970;SDS011;45825;45.434;9.116;2023-03-14T14:14:26;16.08;;;12.48;;
59970;SDS011;45825;45.434;9.116;2023-03-14T14:16:56;18.10;;;13.18;;
59970;SDS011;45825;45.434;9.116;2023-03-14T14:19:24;14.85;;;12.70;;
59970;SDS011;45825;45.434;9.116;2023-03-14T14:21:52;16.02;;;12.70;;
59970;SDS011;45825;45.434;9.116;2023-03-14T14:24:18;16.75;;;13.55;;
59970;SDS011;45825;45.434;9.116;2023-03-14T14:26:52;16.17;;;12.98;;
59970;SDS011;45825;45.434;9.116;2023-03-14T14:29:23;16.75;;;13.80;;
59970;SDS011;45825;45.434;9.116;2023-03-14T14:34:38;17.95;;;14.05;;
59970;SDS011;45825;45.434;9.116;2023-03-14T14:37:21;16.92;;;14.43;;
59970;SDS011;45825;45.434;9.116;2023-03-14T14:39:51;17.60;;;14.23;;
59970;SDS011;45825;45.434;9.116;2023-03-14T14:42:19;18.40;;;13.98;;
59970;SDS011;45825;45.434;9.116;2023-03-14T14:44:47;18.27;;;13.27;;
59970;SDS011;45825;45.434;9.116;2023-03-14T14:47:16;17.17;;;14.25;;
59970;SDS011;45825;45.434;9.116;2023-03-14T14:49:44;18.65;;;15.05;;
59970;SDS011;45825;45.434;9.116;2023-03-14T14:52:14;16.92;;;14.13;;
59970;SDS011;45825;45.434;9.116;2023-03-14T14:57:18;18.30;;;14.48;;
59970;SDS011;45825;45.434;9.116;2023-03-14T14:59:48;17.88;;;14.98;;
59970;SDS011;45825;45.434;9.116;2023-03-14T15:02:24;19.45;;;14.90;;
59970;SDS011;45825;45.434;9.116;2023-03-14T15:04:57;18.63;;;15.02;;
59970;SDS011;45825;45.434;9.116;2023-03-14T15:07:22;18.65;;;15.48;;
59970;SDS011;45825;45.434;9.116;2023-03-14T15:09:48;19.17;;;16.00;;
59970;SDS011;45825;45.434;9.116;2023-03-14T15:12:13;20.27;;;16.77;;
59970;SDS011;45825;45.434;9.116;2023-03-14T15:14:38;22.85;;;16.80;;
59970;SDS011;45825;45.434;9.116;2023-03-14T15:17:05;21.90;;;16.63;;
59970;SDS011;45825;45.434;9.116;2023-03-14T15:19:33;21.67;;;17.33;;
59970;SDS011;45825;45.434;9.116;2023-03-14T15:21:59;19.85;;;16.58;;
59970;SDS011;45825;45.434;9.116;2023-03-14T15:24:24;20.27;;;17.00;;
59970;SDS011;45825;45.434;9.116;2023-03-14T15:26:50;20.42;;;16.38;;
59970;SDS011;45825;45.434;9.116;2023-03-14T15:29:16;21.42;;;17.45;;
59970;SDS011;45825;45.434;9.116;2023-03-14T15:31:41;21.05;;;17.83;;
59970;SDS011;45825;45.434;9.116;2023-03-14T15:34:08;21.33;;;17.67;;
59970;SDS011;45825;45.434;9.116;2023-03-14T15:36:34;23.45;;;17.85;;
59970;SDS011;45825;45.434;9.116;2023-03-14T15:39:01;22.58;;;18.92;;
59970;SDS011;45825;45.434;9.116;2023-03-14T15:41:27;23.63;;;18.90;;
59970;SDS011;45825;45.434;9.116;2023-03-14T15:43:53;23.00;;;18.83;;
59970;SDS011;45825;45.434;9.116;2023-03-14T15:46:19;24.33;;;19.25;;
59970;SDS011;45825;45.434;9.116;2023-03-14T15:48:46;26.95;;;19.30;;